sensor_id;sensor_type;location;lat;lon;timestamp;pressure;altitude;pressure_sealevel;temperature;humidity
48882;BME280;57063;51.406;-2.402;2023-06-19T00:00:50;99821.97;;;14.62;100.00
48882;BME280;57063;51.406;-2.402;2023-06-19T00:03:15;99823.16;;;14.58;100.00
48882;BME280;57063;51.406;-2.402;2023-06-19T00:05:41;99812.97;;;14.66;100.00
48882;BME280;57063;51.406;-2.402;2023-06-19T00:08:06;99818.13;;;14.56;100.00
48882;BME280;57063;51.406;-2.402;2023-06-19T00:10:32;99812.69;;;14.48;100.00
48882;BME280;57063;51.406;-2.402;2023-06-19T00:12:57;99821.84;;;14.42;100.00
48882;BME280;57063;51.406;-2.402;2023-06-19T00:15:23;99808.66;;;14.55;100.00
48882;BME280;57063;51.406;-2.402;2023-06-19T00:17:48;99815.75;;;14.74;100.00
48882;BME280;57063;51.406;-2.402;2023-06-19T00:20:13;99808.00;;;14.63;100.00
48882;BME280;57063;51.406;-2.402;2023-06-19T00:22:40;99812.09;;;14.55;100.00
48882;BME280;57063;51.406;-2.402;2023-06-19T00:25:06;99808.19;;;14.50;100.00
48882;BME280;57063;51.406;-2.402;2023-06-19T00:27:31;99799.38;;;14.31;100.00
48882;BME280;57063;51.406;-2.402;2023-06-19T00:29:56;99802.69;;;14.43;100.00
48882;BME280;57063;51.406;-2.402;2023-06-19T00:32:28;99812.00;;;14.46;100.00
48882;BME280;57063;51.406;-2.402;2023-06-19T00:34:53;99812.72;;;14.27;100.00
48882;BME280;57063;51.406;-2.402;2023-06-19T00:37:19;99816.69;;;14.31;100.00
48882;BME280;57063;51.406;-2.402;2023-06-19T00:39:44;99810.56;;;14.32;100.00
48882;BME280;57063;51.406;-2.402;2023-06-19T00:42:10;99815.06;;;14.30;100.00
48882;BME280;57063;51.406;-2.402;2023-06-19T00:44:35;99810.19;;;14.16;100.00
48882;BME280;57063;51.406;-2.402;2023-06-19T00:47:02;99814.56;;;14.15;100.00
48882;BME280;57063;51.406;-2.402;2023-06-19T00:49:30;99809.00;;;14.20;100.00
48882;BME280;57063;51.406;-2.402;2023-06-19T00:51:55;99817.47;;;14.22;100.00
48882;BME280;57063;51.406;-2.402;2023-06-19T00:54:21;99810.50;;;14.01;100.00
48882;BME280;57063;51.406;-2.402;2023-06-19T00:56:47;99802.16;;;13.98;100.00
48882;BME280;57063;51.406;-2.402;2023-06-19T00:59:22;99802.78;;;14.11;100.00
48882;BME280;57063;51.406;-2.402;2023-06-19T01:01:48;99805.25;;;14.12;100.00
48882;BME280;57063;51.406;-2.402;2023-06-19T01:04:13;99797.91;;;14.18;100.00
48882;BME280;57063;51.406;-2.402;2023-06-19T01:06:46;99800.69;;;14.26;100.00
48882;BME280;57063;51.406;-2.402;2023-06-19T01:09:16;99800.19;;;14.32;100.00
48882;BME280;57063;51.406;-2.402;2023-06-19T01:11:55;99798.22;;;14.24;100.00
48882;BME280;57063;51.406;-2.402;2023-06-19T01:14:26;99803.66;;;14.21;100.00
48882;BME280;57063;51.406;-2.402;2023-06-19T01:16:53;99814.97;;;13.99;100.00
48882;BME280;57063;51.406;-2.402;2023-06-19T01:19:20;99808.41;;;13.95;100.00
48882;BME280;57063;51.406;-2.402;2023-06-19T01:21:46;99809.69;;;14.01;100.00
48882;BME280;57063;51.406;-2.402;2023-06-19T01:24:13;99808.03;;;14.00;100.00
48882;BME280;57063;51.406;-2.402;2023-06-19T01:26:38;99805.88;;;13.84;100.00
48882;BME280;57063;51.406;-2.402;2023-06-19T01:29:04;99802.53;;;13.93;100.00
48882;BME280;57063;51.406;-2.402;2023-06-19T01:31:34;99801.72;;;13.93;100.00
48882;BME280;57063;51.406;-2.402;2023-06-19T01:34:01;99806.38;;;13.78;100.00
48882;BME280;57063;51.406;-2.402;2023-06-19T01:36:29;99807.69;;;13.72;100.00
48882;BME280;57063;51.406;-2.402;2023-06-19T01:38:57;99810.16;;;13.74;100.00
48882;BME280;57063;51.406;-2.402;2023-06-19T01:41:24;99803.94;;;13.65;100.00
48882;BME280;57063;51.406;-2.402;2023-06-19T01:43:50;99809.16;;;13.54;100.00
48882;BME280;57063;51.406;-2.402;2023-06-19T01:46:16;99809.72;;;13.57;100.00
48882;BME280;57063;51.406;-2.402;2023-06-19T01:48:44;99801.97;;;13.46;100.00
48882;BME280;57063;51.406;-2.402;2023-06-19T01:51:10;99806.13;;;13.48;100.00
48882;BME280;57063;51.406;-2.402;2023-06-19T01:53:36;99800.09;;;13.48;100.00
48882;BME280;57063;51.406;-2.402;2023-06-19T01:56:01;99804.28;;;13.60;100.00
48882;BME280;57063;51.406;-2.402;2023-06-19T01:58:27;99801.34;;;13.65;100.00
48882;BME280;57063;51.406;-2.402;2023-06-19T02:00:52;99797.72;;;13.56;100.00
48882;BME280;57063;51.406;-2.402;2023-06-19T02:03:18;99789.72;;;13.48;100.00
48882;BME280;57063;51.406;-2.402;2023-06-19T02:05:43;99794.38;;;13.65;100.00
48882;BME280;57063;51.406;-2.402;2023-06-19T02:08:08;99798.28;;;13.60;100.00
48882;BME280;57063;51.406;-2.402;2023-06-19T02:10:34;99800.25;;;13.67;100.00
48882;BME280;57063;51.406;-2.402;2023-06-19T02:13:00;99798.03;;;13.63;100.00
48882;BME280;57063;51.406;-2.402;2023-06-19T02:15:25;99796.19;;;13.86;100.00
48882;BME280;57063;51.406;-2.402;2023-06-19T02:17:51;99796.47;;;13.72;100.00
48882;BME280;57063;51.406;-2.402;2023-06-19T02:20:22;99797.38;;;13.61;100.00
48882;BME280;57063;51.406;-2.402;2023-06-19T02:22:49;99794.91;;;13.48;100.00
48882;BME280;57063;51.406;-2.402;2023-06-19T02:25:15;99791.59;;;13.46;100.00
48882;BME280;57063;51.406;-2.402;2023-06-19T02:27:41;99789.97;;;13.45;100.00
48882;BME280;57063;51.406;-2.402;2023-06-19T02:30:06;99786.91;;;13.40;100.00
48882;BME280;57063;51.406;-2.402;2023-06-19T02:32:32;99792.56;;;13.34;100.00
48882;BME280;57063;51.406;-2.402;2023-06-19T02:34:58;99796.84;;;13.35;100.00
48882;BME280;57063;51.406;-2.402;2023-06-19T02:37:23;99800.03;;;13.27;100.00
48882;BME280;57063;51.406;-2.402;2023-06-19T02:39:49;99797.31;;;13.28;100.00
48882;BME280;57063;51.406;-2.402;2023-06-19T02:42:14;99800.13;;;13.25;100.00
48882;BME280;57063;51.406;-2.402;2023-06-19T02:44:40;99802.97;;;13.22;100.00
48882;BME280;57063;51.406;-2.402;2023-06-19T02:47:05;99804.94;;;13.19;100.00
48882;BME280;57063;51.406;-2.402;2023-06-19T02:49:31;99795.66;;;13.16;100.00
48882;BME280;57063;51.406;-2.402;2023-06-19T02:51:56;99796.38;;;13.30;100.00
48882;BME280;57063;51.406;-2.402;2023-06-19T02:54:22;99800.84;;;13.39;100.00
48882;BME280;57063;51.406;-2.402;2023-06-19T02:56:47;99804.53;;;13.57;100.00
48882;BME280;57063;51.406;-2.402;2023-06-19T02:59:13;99813.03;;;13.59;100.00
48882;BME280;57063;51.406;-2.402;2023-06-19T03:01:38;99814.25;;;13.44;100.00
48882;BME280;57063;51.406;-2.402;2023-06-19T03:04:04;99811.63;;;13.55;100.00
48882;BME280;57063;51.406;-2.402;2023-06-19T03:06:29;99819.41;;;13.55;100.00
48882;BME280;57063;51.406;-2.402;2023-06-19T03:08:55;99825.31;;;13.46;100.00
48882;BME280;57063;51.406;-2.402;2023-06-19T03:11:21;99831.00;;;13.28;100.00
48882;BME280;57063;51.406;-2.402;2023-06-19T03:13:49;99821.81;;;13.36;100.00
48882;BME280;57063;51.406;-2.402;2023-06-19T03:16:14;99827.91;;;13.46;100.00
48882;BME280;57063;51.406;-2.402;2023-06-19T03:18:40;99823.19;;;13.51;100.00
48882;BME280;57063;51.406;-2.402;2023-06-19T03:23:32;99833.31;;;13.54;100.00
48882;BME280;57063;51.406;-2.402;2023-06-19T03:25:57;99836.97;;;13.52;100.00
48882;BME280;57063;51.406;-2.402;2023-06-19T03:28:23;99839.91;;;13.58;100.00
48882;BME280;57063;51.406;-2.402;2023-06-19T03:30:49;99843.22;;;13.49;100.00
48882;BME280;57063;51.406;-2.402;2023-06-19T03:33:15;99839.22;;;13.56;100.00
48882;BME280;57063;51.406;-2.402;2023-06-19T03:35:40;99842.13;;;13.63;100.00
48882;BME280;57063;51.406;-2.402;2023-06-19T03:38:06;99843.41;;;13.68;100.00
48882;BME280;57063;51.406;-2.402;2023-06-19T03:40:31;99844.13;;;13.70;100.00
48882;BME280;57063;51.406;-2.402;2023-06-19T03:42:56;99841.38;;;13.83;100.00
48882;BME280;57063;51.406;-2.402;2023-06-19T03:45:22;99838.50;;;13.86;100.00
48882;BME280;57063;51.406;-2.402;2023-06-19T03:47:47;99843.53;;;13.99;100.00
48882;BME280;57063;51.406;-2.402;2023-06-19T03:50:12;99842.81;;;13.97;100.00
48882;BME280;57063;51.406;-2.402;2023-06-19T03:52:38;99841.44;;;13.93;100.00
48882;BME280;57063;51.406;-2.402;2023-06-19T03:55:04;99834.47;;;13.94;100.00
48882;BME280;57063;51.406;-2.402;2023-06-19T03:57:29;99842.25;;;13.94;100.00
48882;BME280;57063;51.406;-2.402;2023-06-19T03:59:56;99844.84;;;13.94;100.00
48882;BME280;57063;51.406;-2.402;2023-06-19T04:02:21;99847.06;;;13.98;100.00
48882;BME280;57063;51.406;-2.402;2023-06-19T04:04:47;99845.19;;;14.21;100.00
48882;BME280;57063;51.406;-2.402;2023-06-19T04:07:12;99842.91;;;14.07;100.00
48882;BME280;57063;51.406;-2.402;2023-06-19T04:09:38;99848.47;;;14.02;100.00
48882;BME280;57063;51.406;-2.402;2023-06-19T04:12:04;99847.28;;;14.06;100.00
48882;BME280;57063;51.406;-2.402;2023-06-19T04:14:29;99853.88;;;14.10;100.00
48882;BME280;57063;51.406;-2.402;2023-06-19T04:16:55;99856.19;;;14.13;100.00
48882;BME280;57063;51.406;-2.402;2023-06-19T04:19:20;99854.94;;;14.08;100.00
48882;BME280;57063;51.406;-2.402;2023-06-19T04:21:45;99846.56;;;14.04;100.00
48882;BME280;57063;51.406;-2.402;2023-06-19T04:24:11;99850.56;;;14.08;100.00
48882;BME280;57063;51.406;-2.402;2023-06-19T04:26:36;99847.03;;;14.09;100.00
48882;BME280;57063;51.406;-2.402;2023-06-19T04:29:02;99853.34;;;14.17;100.00
48882;BME280;57063;51.406;-2.402;2023-06-19T04:31:28;99853.94;;;14.41;100.00
48882;BME280;57063;51.406;-2.402;2023-06-19T04:33:54;99856.97;;;14.25;100.00
48882;BME280;57063;51.406;-2.402;2023-06-19T04:36:22;99860.00;;;14.30;100.00
48882;BME280;57063;51.406;-2.402;2023-06-19T04:38:47;99867.13;;;14.49;100.00
48882;BME280;57063;51.406;-2.402;2023-06-19T04:41:12;99862.66;;;14.40;100.00
48882;BME280;57063;51.406;-2.402;2023-06-19T04:43:38;99862.56;;;14.42;100.00
48882;BME280;57063;51.406;-2.402;2023-06-19T04:46:06;99869.38;;;14.43;100.00
48882;BME280;57063;51.406;-2.402;2023-06-19T04:48:32;99868.19;;;14.47;100.00
48882;BME280;57063;51.406;-2.402;2023-06-19T04:50:57;99861.94;;;14.70;100.00
48882;BME280;57063;51.406;-2.402;2023-06-19T04:53:26;99873.84;;;14.73;100.00
48882;BME280;57063;51.406;-2.402;2023-06-19T04:55:51;99873.16;;;14.71;100.00
48882;BME280;57063;51.406;-2.402;2023-06-19T04:58:19;99869.53;;;14.62;100.00
48882;BME280;57063;51.406;-2.402;2023-06-19T05:00:46;99877.22;;;14.64;100.00
48882;BME280;57063;51.406;-2.402;2023-06-19T05:03:16;99875.06;;;14.69;100.00
48882;BME280;57063;51.406;-2.402;2023-06-19T05:05:42;99878.63;;;14.77;100.00
48882;BME280;57063;51.406;-2.402;2023-06-19T05:08:07;99893.59;;;14.85;100.00
48882;BME280;57063;51.406;-2.402;2023-06-19T05:10:32;99895.13;;;14.88;100.00
48882;BME280;57063;51.406;-2.402;2023-06-19T05:12:58;99887.06;;;14.91;100.00
48882;BME280;57063;51.406;-2.402;2023-06-19T05:15:23;99889.28;;;14.95;100.00
48882;BME280;57063;51.406;-2.402;2023-06-19T05:17:48;99889.13;;;14.97;100.00
48882;BME280;57063;51.406;-2.402;2023-06-19T05:20:14;99897.53;;;15.10;100.00
48882;BME280;57063;51.406;-2.402;2023-06-19T05:22:40;99905.09;;;15.23;100.00
48882;BME280;57063;51.406;-2.402;2023-06-19T05:25:06;99896.09;;;15.27;100.00
48882;BME280;57063;51.406;-2.402;2023-06-19T05:27:32;99888.44;;;15.35;100.00
48882;BME280;57063;51.406;-2.402;2023-06-19T05:29:58;99894.91;;;15.41;100.00
48882;BME280;57063;51.406;-2.402;2023-06-19T05:32:23;99891.34;;;15.42;100.00
48882;BME280;57063;51.406;-2.402;2023-06-19T05:34:48;99888.44;;;15.35;100.00
48882;BME280;57063;51.406;-2.402;2023-06-19T05:37:15;99898.84;;;15.35;100.00
48882;BME280;57063;51.406;-2.402;2023-06-19T05:39:41;99893.66;;;15.35;100.00
48882;BME280;57063;51.406;-2.402;2023-06-19T05:42:06;99898.59;;;15.38;100.00
48882;BME280;57063;51.406;-2.402;2023-06-19T05:44:32;99902.69;;;15.41;100.00
48882;BME280;57063;51.406;-2.402;2023-06-19T05:46:57;99894.50;;;15.46;100.00
48882;BME280;57063;51.406;-2.402;2023-06-19T05:49:23;99892.16;;;15.43;100.00
48882;BME280;57063;51.406;-2.402;2023-06-19T05:51:48;99893.13;;;15.41;100.00
48882;BME280;57063;51.406;-2.402;2023-06-19T05:54:13;99880.28;;;15.50;100.00
48882;BME280;57063;51.406;-2.402;2023-06-19T05:56:38;99880.72;;;15.65;100.00
48882;BME280;57063;51.406;-2.402;2023-06-19T05:59:04;99886.66;;;15.76;100.00
48882;BME280;57063;51.406;-2.402;2023-06-19T06:01:30;99887.13;;;15.60;100.00
48882;BME280;57063;51.406;-2.402;2023-06-19T06:03:56;99889.34;;;15.65;100.00
48882;BME280;57063;51.406;-2.402;2023-06-19T06:06:25;99892.16;;;15.73;100.00
48882;BME280;57063;51.406;-2.402;2023-06-19T06:08:50;99889.34;;;15.65;100.00
48882;BME280;57063;51.406;-2.402;2023-06-19T06:11:20;99892.28;;;15.81;100.00
48882;BME280;57063;51.406;-2.402;2023-06-19T06:13:45;99891.75;;;15.88;100.00
48882;BME280;57063;51.406;-2.402;2023-06-19T06:16:11;99901.59;;;15.74;100.00
48882;BME280;57063;51.406;-2.402;2023-06-19T06:18:36;99904.59;;;15.79;100.00
48882;BME280;57063;51.406;-2.402;2023-06-19T06:21:02;99896.28;;;15.86;100.00
48882;BME280;57063;51.406;-2.402;2023-06-19T06:23:27;99894.91;;;16.01;100.00
48882;BME280;57063;51.406;-2.402;2023-06-19T06:25:53;99902.59;;;16.12;100.00
48882;BME280;57063;51.406;-2.402;2023-06-19T06:28:22;99898.19;;;16.22;100.00
48882;BME280;57063;51.406;-2.402;2023-06-19T06:30:47;99879.69;;;16.25;100.00
48882;BME280;57063;51.406;-2.402;2023-06-19T06:33:12;99885.66;;;16.65;100.00
48882;BME280;57063;51.406;-2.402;2023-06-19T06:35:38;99890.44;;;16.69;100.00
48882;BME280;57063;51.406;-2.402;2023-06-19T06:38:03;99891.22;;;16.89;100.00
48882;BME280;57063;51.406;-2.402;2023-06-19T06:40:29;99890.13;;;16.92;100.00
48882;BME280;57063;51.406;-2.402;2023-06-19T06:42:54;99891.81;;;16.74;100.00
48882;BME280;57063;51.406;-2.402;2023-06-19T06:45:20;99893.75;;;16.62;100.00
48882;BME280;57063;51.406;-2.402;2023-06-19T06:47:45;99898.97;;;16.52;100.00
48882;BME280;57063;51.406;-2.402;2023-06-19T06:50:11;99894.72;;;16.61;100.00
48882;BME280;57063;51.406;-2.402;2023-06-19T06:52:36;99897.56;;;16.67;100.00
48882;BME280;57063;51.406;-2.402;2023-06-19T06:55:03;99895.38;;;16.73;100.00
48882;BME280;57063;51.406;-2.402;2023-06-19T06:57:28;99899.09;;;16.80;100.00
48882;BME280;57063;51.406;-2.402;2023-06-19T06:59:53;99896.44;;;16.89;100.00
48882;BME280;57063;51.406;-2.402;2023-06-19T07:02:19;99904.47;;;17.16;100.00
48882;BME280;57063;51.406;-2.402;2023-06-19T07:04:44;99903.06;;;17.49;100.00
48882;BME280;57063;51.406;-2.402;2023-06-19T07:07:10;99903.38;;;18.71;99.96
48882;BME280;57063;51.406;-2.402;2023-06-19T07:09:35;99904.28;;;18.18;98.61
48882;BME280;57063;51.406;-2.402;2023-06-19T07:12:00;99910.69;;;17.88;99.39
48882;BME280;57063;51.406;-2.402;2023-06-19T07:14:29;99911.31;;;18.00;98.49
48882;BME280;57063;51.406;-2.402;2023-06-19T07:16:55;99909.66;;;17.99;97.01
48882;BME280;57063;51.406;-2.402;2023-06-19T07:19:20;99908.59;;;17.91;96.84
48882;BME280;57063;51.406;-2.402;2023-06-19T07:21:45;99909.94;;;17.95;95.00
48882;BME280;57063;51.406;-2.402;2023-06-19T07:24:11;99925.16;;;18.18;93.03
48882;BME280;57063;51.406;-2.402;2023-06-19T07:26:36;99921.69;;;18.09;92.52
48882;BME280;57063;51.406;-2.402;2023-06-19T07:29:02;99927.63;;;18.81;91.88
48882;BME280;57063;51.406;-2.402;2023-06-19T07:31:27;99927.28;;;19.37;85.15
48882;BME280;57063;51.406;-2.402;2023-06-19T07:33:53;99925.34;;;19.05;85.02
48882;BME280;57063;51.406;-2.402;2023-06-19T07:36:18;99930.47;;;18.88;85.88
48882;BME280;57063;51.406;-2.402;2023-06-19T07:38:43;99928.44;;;19.08;83.03
48882;BME280;57063;51.406;-2.402;2023-06-19T07:41:09;99925.69;;;18.84;86.34
48882;BME280;57063;51.406;-2.402;2023-06-19T07:43:36;99932.97;;;18.98;86.87
48882;BME280;57063;51.406;-2.402;2023-06-19T07:46:02;99929.44;;;19.07;84.19
48882;BME280;57063;51.406;-2.402;2023-06-19T07:48:28;99926.69;;;19.51;79.79
48882;BME280;57063;51.406;-2.402;2023-06-19T07:50:53;99933.44;;;19.28;81.11
48882;BME280;57063;51.406;-2.402;2023-06-19T07:53:19;99934.88;;;20.07;77.87
48882;BME280;57063;51.406;-2.402;2023-06-19T07:55:44;99932.91;;;20.66;73.82
48882;BME280;57063;51.406;-2.402;2023-06-19T07:58:10;99927.78;;;21.76;67.74
48882;BME280;57063;51.406;-2.402;2023-06-19T08:00:35;99926.31;;;21.43;67.77
48882;BME280;57063;51.406;-2.402;2023-06-19T08:03:00;99922.13;;;21.65;68.25
48882;BME280;57063;51.406;-2.402;2023-06-19T08:05:26;99935.69;;;22.83;63.37
48882;BME280;57063;51.406;-2.402;2023-06-19T08:07:51;99928.44;;;23.30;60.17
48882;BME280;57063;51.406;-2.402;2023-06-19T08:10:17;99927.00;;;22.45;60.26
48882;BME280;57063;51.406;-2.402;2023-06-19T08:12:43;99931.72;;;22.50;62.76
48882;BME280;57063;51.406;-2.402;2023-06-19T08:15:09;99928.63;;;23.14;59.52
48882;BME280;57063;51.406;-2.402;2023-06-19T08:17:35;99932.41;;;22.67;61.25
48882;BME280;57063;51.406;-2.402;2023-06-19T08:20:01;99941.91;;;23.05;59.37
48882;BME280;57063;51.406;-2.402;2023-06-19T08:22:26;99929.13;;;22.27;62.08
48882;BME280;57063;51.406;-2.402;2023-06-19T08:24:52;99934.09;;;22.59;61.84
48882;BME280;57063;51.406;-2.402;2023-06-19T08:27:17;99939.44;;;23.19;61.73
48882;BME280;57063;51.406;-2.402;2023-06-19T08:29:42;99939.38;;;22.59;58.90
48882;BME280;57063;51.406;-2.402;2023-06-19T08:32:08;99938.63;;;22.05;61.49
48882;BME280;57063;51.406;-2.402;2023-06-19T08:34:34;99938.47;;;21.44;63.15
48882;BME280;57063;51.406;-2.402;2023-06-19T08:37:00;99939.25;;;21.84;63.74
48882;BME280;57063;51.406;-2.402;2023-06-19T08:39:25;99935.38;;;21.71;64.92
48882;BME280;57063;51.406;-2.402;2023-06-19T08:41:51;99930.63;;;21.67;64.31
48882;BME280;57063;51.406;-2.402;2023-06-19T08:44:18;99942.69;;;21.53;64.28
48882;BME280;57063;51.406;-2.402;2023-06-19T08:46:44;99937.94;;;21.01;64.50
48882;BME280;57063;51.406;-2.402;2023-06-19T08:49:09;99943.25;;;21.40;63.83
48882;BME280;57063;51.406;-2.402;2023-06-19T08:51:37;99949.03;;;21.11;63.73
48882;BME280;57063;51.406;-2.402;2023-06-19T08:54:05;99950.34;;;21.15;63.25
48882;BME280;57063;51.406;-2.402;2023-06-19T08:56:31;99951.00;;;21.17;63.65
48882;BME280;57063;51.406;-2.402;2023-06-19T08:59:12;99954.44;;;21.17;63.86
48882;BME280;57063;51.406;-2.402;2023-06-19T09:01:38;99950.44;;;21.38;62.46
48882;BME280;57063;51.406;-2.402;2023-06-19T09:04:13;99955.06;;;22.30;59.86
48882;BME280;57063;51.406;-2.402;2023-06-19T09:06:59;99957.97;;;23.11;58.18
48882;BME280;57063;51.406;-2.402;2023-06-19T09:09:26;99949.66;;;22.84;57.53
48882;BME280;57063;51.406;-2.402;2023-06-19T09:12:03;99956.69;;;23.06;57.32
48882;BME280;57063;51.406;-2.402;2023-06-19T09:14:37;99956.44;;;23.67;55.21
48882;BME280;57063;51.406;-2.402;2023-06-19T09:17:03;99948.47;;;24.40;54.68
48882;BME280;57063;51.406;-2.402;2023-06-19T09:19:29;99955.84;;;25.01;53.26
48882;BME280;57063;51.406;-2.402;2023-06-19T09:22:02;99955.22;;;23.48;53.91
48882;BME280;57063;51.406;-2.402;2023-06-19T09:24:41;99952.22;;;24.24;54.28
48882;BME280;57063;51.406;-2.402;2023-06-19T09:27:13;99962.72;;;23.81;54.13
48882;BME280;57063;51.406;-2.402;2023-06-19T09:29:43;99967.31;;;22.98;55.85
48882;BME280;57063;51.406;-2.402;2023-06-19T09:32:25;99965.66;;;22.97;55.89
48882;BME280;57063;51.406;-2.402;2023-06-19T09:34:56;99966.97;;;22.17;58.04
48882;BME280;57063;51.406;-2.402;2023-06-19T09:37:30;99958.75;;;22.20;58.00
48882;BME280;57063;51.406;-2.402;2023-06-19T09:40:01;99951.72;;;22.74;57.80
48882;BME280;57063;51.406;-2.402;2023-06-19T09:42:35;99964.41;;;23.23;56.13
48882;BME280;57063;51.406;-2.402;2023-06-19T09:45:02;99966.78;;;22.80;56.58
48882;BME280;57063;51.406;-2.402;2023-06-19T09:47:43;99955.78;;;22.61;58.42
48882;BME280;57063;51.406;-2.402;2023-06-19T09:50:12;99957.97;;;23.11;57.94
48882;BME280;57063;51.406;-2.402;2023-06-19T09:52:39;99960.06;;;23.15;56.09
48882;BME280;57063;51.406;-2.402;2023-06-19T09:55:05;99961.66;;;23.16;55.65
48882;BME280;57063;51.406;-2.402;2023-06-19T09:57:34;99960.81;;;22.86;57.00
48882;BME280;57063;51.406;-2.402;2023-06-19T10:00:02;99959.66;;;23.78;55.45
48882;BME280;57063;51.406;-2.402;2023-06-19T10:05:06;99954.78;;;24.95;52.23
48882;BME280;57063;51.406;-2.402;2023-06-19T10:07:37;99964.75;;;24.44;51.28
48882;BME280;57063;51.406;-2.402;2023-06-19T10:10:04;99972.34;;;25.10;50.80
48882;BME280;57063;51.406;-2.402;2023-06-19T10:12:40;99973.97;;;25.39;49.90
48882;BME280;57063;51.406;-2.402;2023-06-19T10:15:15;99957.81;;;25.69;48.77
48882;BME280;57063;51.406;-2.402;2023-06-19T10:17:53;99969.75;;;24.60;49.55
48882;BME280;57063;51.406;-2.402;2023-06-19T10:23:10;99964.69;;;24.59;50.96
48882;BME280;57063;51.406;-2.402;2023-06-19T10:25:43;99967.00;;;24.25;50.88
48882;BME280;57063;51.406;-2.402;2023-06-19T10:28:28;99953.28;;;24.51;50.92
48882;BME280;57063;51.406;-2.402;2023-06-19T10:30:59;99958.22;;;24.61;50.57
48882;BME280;57063;51.406;-2.402;2023-06-19T10:33:29;99969.44;;;23.69;50.96
48882;BME280;57063;51.406;-2.402;2023-06-19T10:35:55;99978.94;;;24.21;50.94
48882;BME280;57063;51.406;-2.402;2023-06-19T10:38:21;99971.84;;;23.49;51.05
48882;BME280;57063;51.406;-2.402;2023-06-19T10:40:47;99974.63;;;23.77;51.31
48882;BME280;57063;51.406;-2.402;2023-06-19T10:43:19;99974.78;;;23.90;51.78
48882;BME280;57063;51.406;-2.402;2023-06-19T10:45:44;99980.84;;;23.25;51.89
48882;BME280;57063;51.406;-2.402;2023-06-19T10:48:09;99977.81;;;22.60;52.86
48882;BME280;57063;51.406;-2.402;2023-06-19T10:50:37;99984.56;;;23.75;52.97
48882;BME280;57063;51.406;-2.402;2023-06-19T10:53:04;99982.09;;;24.10;51.46
48882;BME280;57063;51.406;-2.402;2023-06-19T10:55:30;99977.25;;;24.13;50.43
48882;BME280;57063;51.406;-2.402;2023-06-19T10:57:55;99972.69;;;23.86;50.53
48882;BME280;57063;51.406;-2.402;2023-06-19T11:00:29;99965.28;;;23.75;50.02
48882;BME280;57063;51.406;-2.402;2023-06-19T11:02:56;99974.03;;;23.16;52.56
48882;BME280;57063;51.406;-2.402;2023-06-19T11:05:23;99977.19;;;24.50;49.38
48882;BME280;57063;51.406;-2.402;2023-06-19T11:07:57;99977.34;;;24.98;48.78
48882;BME280;57063;51.406;-2.402;2023-06-19T11:10:27;99965.75;;;24.21;49.78
48882;BME280;57063;51.406;-2.402;2023-06-19T11:12:58;99960.84;;;24.40;49.81
48882;BME280;57063;51.406;-2.402;2023-06-19T11:15:31;99950.59;;;24.73;48.95
48882;BME280;57063;51.406;-2.402;2023-06-19T11:17:57;99950.69;;;24.37;49.07
48882;BME280;57063;51.406;-2.402;2023-06-19T11:20:23;99945.03;;;23.97;50.75
48882;BME280;57063;51.406;-2.402;2023-06-19T11:22:57;99961.22;;;23.42;50.88
48882;BME280;57063;51.406;-2.402;2023-06-19T11:25:23;99956.81;;;23.79;50.57
48882;BME280;57063;51.406;-2.402;2023-06-19T11:27:48;99957.09;;;24.27;49.58
48882;BME280;57063;51.406;-2.402;2023-06-19T11:30:17;99963.53;;;23.82;49.24
48882;BME280;57063;51.406;-2.402;2023-06-19T11:32:46;99958.22;;;24.18;49.32
48882;BME280;57063;51.406;-2.402;2023-06-19T11:35:15;99952.84;;;24.26;49.44
48882;BME280;57063;51.406;-2.402;2023-06-19T11:37:42;99954.06;;;25.08;48.15
48882;BME280;57063;51.406;-2.402;2023-06-19T11:40:09;99954.59;;;25.25;46.91
48882;BME280;57063;51.406;-2.402;2023-06-19T11:43:03;99953.28;;;25.14;46.63
48882;BME280;57063;51.406;-2.402;2023-06-19T11:45:29;99956.00;;;25.28;45.96
48882;BME280;57063;51.406;-2.402;2023-06-19T11:47:54;99964.72;;;24.93;45.56
48882;BME280;57063;51.406;-2.402;2023-06-19T11:50:27;99955.09;;;25.55;44.13
48882;BME280;57063;51.406;-2.402;2023-06-19T11:52:52;99951.13;;;25.25;42.37
48882;BME280;57063;51.406;-2.402;2023-06-19T11:55:18;99950.00;;;26.15;41.90
48882;BME280;57063;51.406;-2.402;2023-06-19T11:57:43;99955.81;;;25.84;43.24
48882;BME280;57063;51.406;-2.402;2023-06-19T12:00:16;99952.13;;;25.72;42.25
48882;BME280;57063;51.406;-2.402;2023-06-19T12:02:43;99948.91;;;25.83;41.42
48882;BME280;57063;51.406;-2.402;2023-06-19T12:05:09;99950.72;;;25.28;41.74
48882;BME280;57063;51.406;-2.402;2023-06-19T12:07:36;99953.28;;;25.49;42.48
48882;BME280;57063;51.406;-2.402;2023-06-19T12:10:02;99954.50;;;25.53;42.53
48882;BME280;57063;51.406;-2.402;2023-06-19T12:12:28;99953.56;;;25.81;42.14
48882;BME280;57063;51.406;-2.402;2023-06-19T12:14:55;99952.06;;;26.46;42.00
48882;BME280;57063;51.406;-2.402;2023-06-19T12:17:20;99949.41;;;26.73;41.37
48882;BME280;57063;51.406;-2.402;2023-06-19T12:19:45;99955.94;;;26.24;41.45
48882;BME280;57063;51.406;-2.402;2023-06-19T12:22:11;99953.03;;;25.92;42.53
48882;BME280;57063;51.406;-2.402;2023-06-19T12:24:36;99953.03;;;26.19;42.85
48882;BME280;57063;51.406;-2.402;2023-06-19T12:27:02;99955.88;;;25.91;43.43
48882;BME280;57063;51.406;-2.402;2023-06-19T12:29:27;99964.78;;;25.90;42.52
48882;BME280;57063;51.406;-2.402;2023-06-19T12:31:59;99961.13;;;25.36;44.72
48882;BME280;57063;51.406;-2.402;2023-06-19T12:34:25;99943.44;;;25.91;43.07
48882;BME280;57063;51.406;-2.402;2023-06-19T12:36:52;99959.09;;;25.03;42.97
48882;BME280;57063;51.406;-2.402;2023-06-19T12:39:17;99953.53;;;25.19;42.86
48882;BME280;57063;51.406;-2.402;2023-06-19T12:41:42;99964.41;;;25.86;41.90
48882;BME280;57063;51.406;-2.402;2023-06-19T12:44:08;99958.63;;;25.69;42.14
48882;BME280;57063;51.406;-2.402;2023-06-19T12:46:33;99962.38;;;25.88;41.36
48882;BME280;57063;51.406;-2.402;2023-06-19T12:48:59;99963.25;;;26.35;41.75
48882;BME280;57063;51.406;-2.402;2023-06-19T12:51:24;99959.97;;;27.00;40.42